PWSweather.com
Personal Weather Stations
Station Observations
KNJSTAFF6
Village Harbor, Beach Haven West, Manahawkin, NJ 08050

Village Harbor, Beach Haven WestManahawkin, NJ 08050

Lat: 39.67889410559905, Lon: -74.24244902883606

Elevation: 15

Station Type: Oregon Scientific WMR88A

Latest ConditionsUpdated 12:25:00 AM EST Saturday, Jan 18, 2020
Currently Today's Max Today's Min Today's Average
Temperature 18.9°F-7.3°C 19.6°F-6.9°C 18.7°F-7.4°C 19.2°F-7.1°C
Dew Point -1.5°F-18.6°C -0.9°F-18.3°C -1.5°F-18.6°C -1.3°F-18.5°C
Winds 1.1 mph WNW1.8 kmh WNW 1.4 mph -2.3 kmh - - 0.9 mph 1.4 kmh
Wind Gusts 3.1 mph5.0 kmh 5.8 mph9.3 kmh - -
Humidity 40% 41% 39% 40%
Pressure 30.51 in1033.2 mb 30.51 in1033.2 mb 30.51 in1033.2 mb -
Hour Temp Dew Point Humidity Winds Wind Gusts Pressure Precip Precip Rate Daily Precip Total
12:25 AM 18.9°F-7.3°C -1.5°F-18.6°C 40% 1.1 mph WNW1.8 kmh WNW 3.1 mph5.0 kmh 30.51 in1033.2 mb 0.00 in0.0 mm 0.00 in0.0 mm 0.00 in0.0 mm
12:24 AM 18.9°F-7.3°C -1.5°F-18.6°C 40% 0.8 mph W1.3 kmh W 3.1 mph5.0 kmh 30.51 in1033.2 mb 0.00 in0.0 mm 0.00 in0.0 mm 0.00 in0.0 mm
12:23 AM 19.0°F-7.2°C -1.4°F-18.6°C 40% 0.7 mph W1.1 kmh W 3.1 mph5.0 kmh 30.51 in1033.2 mb 0.00 in0.0 mm 0.00 in0.0 mm 0.00 in0.0 mm
12:22 AM 19.0°F-7.2°C -1.4°F-18.6°C 40% 0.8 mph WSW1.3 kmh WSW 3.1 mph5.0 kmh 30.51 in1033.2 mb 0.00 in0.0 mm 0.00 in0.0 mm 0.00 in0.0 mm
12:21 AM 19.0°F-7.2°C -1.4°F-18.6°C 40% 0.6 mph WSW1.0 kmh WSW 2.5 mph4.0 kmh 30.51 in1033.2 mb 0.00 in0.0 mm 0.00 in0.0 mm 0.00 in0.0 mm
12:20 AM 19.0°F-7.2°C -1.4°F-18.6°C 40% 0.7 mph WSW1.1 kmh WSW 2.5 mph4.0 kmh 30.51 in1033.2 mb 0.00 in0.0 mm 0.00 in0.0 mm 0.00 in0.0 mm
12:19 AM 18.7°F-7.4°C -1.2°F-18.4°C 41% 0.5 mph W0.8 kmh W 2.5 mph4.0 kmh 30.51 in1033.2 mb 0.00 in0.0 mm 0.00 in0.0 mm 0.00 in0.0 mm
12:18 AM 18.7°F-7.4°C -1.2°F-18.4°C 41% 0.6 mph W1.0 kmh W 2.5 mph4.0 kmh 30.51 in1033.2 mb 0.00 in0.0 mm 0.00 in0.0 mm 0.00 in0.0 mm
12:17 AM 19.0°F-7.2°C -1.4°F-18.6°C 40% 0.6 mph W1.0 kmh W 2.5 mph4.0 kmh 30.51 in1033.2 mb 0.00 in0.0 mm 0.00 in0.0 mm 0.00 in0.0 mm
12:16 AM 19.0°F-7.2°C -1.4°F-18.6°C 40% 0.7 mph W1.1 kmh W 2.5 mph4.0 kmh 30.51 in1033.2 mb 0.00 in0.0 mm 0.00 in0.0 mm 0.00 in0.0 mm
12:15 AM 19.2°F-7.1°C -1.2°F-18.4°C 40% 0.4 mph W0.6 kmh W 2.0 mph3.2 kmh 30.51 in1033.2 mb 0.00 in0.0 mm 0.00 in0.0 mm 0.00 in0.0 mm
12:14 AM 19.0°F-7.2°C -1.4°F-18.6°C 40% 0.5 mph WNW0.8 kmh WNW 2.7 mph4.3 kmh 30.51 in1033.2 mb 0.00 in0.0 mm 0.00 in0.0 mm 0.00 in0.0 mm
12:13 AM 19.0°F-7.2°C -1.4°F-18.6°C 40% 0.7 mph WNW1.1 kmh WNW 2.7 mph4.3 kmh 30.51 in1033.2 mb 0.00 in0.0 mm 0.00 in0.0 mm 0.00 in0.0 mm
12:12 AM 19.2°F-7.1°C -1.2°F-18.4°C 40% 1.0 mph NW1.6 kmh NW 5.8 mph9.3 kmh 30.51 in1033.2 mb 0.00 in0.0 mm 0.00 in0.0 mm 0.00 in0.0 mm
12:11 AM 19.2°F-7.1°C -1.2°F-18.4°C 40% 1.1 mph NW1.8 kmh NW 5.8 mph9.3 kmh 30.51 in1033.2 mb 0.00 in0.0 mm 0.00 in0.0 mm 0.00 in0.0 mm
12:10 AM 19.4°F-7.0°C -1.0°F-18.3°C 40% 1.1 mph NW1.8 kmh NW 5.8 mph9.3 kmh 30.51 in1033.2 mb 0.00 in0.0 mm 0.00 in0.0 mm 0.00 in0.0 mm
12:09 AM 19.4°F-7.0°C -1.0°F-18.3°C 40% 1.1 mph NW1.8 kmh NW 5.8 mph9.3 kmh 30.51 in1033.2 mb 0.00 in0.0 mm 0.00 in0.0 mm 0.00 in0.0 mm
12:08 AM 19.6°F-6.9°C -0.9°F-18.3°C 40% 1.2 mph NW1.9 kmh NW 5.8 mph9.3 kmh 30.51 in1033.2 mb 0.00 in0.0 mm 0.00 in0.0 mm 0.00 in0.0 mm
12:07 AM 19.6°F-6.9°C -1.4°F-18.6°C 39% 1.1 mph NW1.8 kmh NW 5.8 mph9.3 kmh 30.51 in1033.2 mb 0.00 in0.0 mm 0.00 in0.0 mm 0.00 in0.0 mm
12:06 AM 19.6°F-6.9°C -1.4°F-18.6°C 39% 1.3 mph NW2.1 kmh NW 5.8 mph9.3 kmh 30.51 in1033.2 mb 0.00 in0.0 mm 0.00 in0.0 mm 0.00 in0.0 mm
12:05 AM 19.6°F-6.9°C -1.4°F-18.6°C 39% 1.4 mph NW2.3 kmh NW 5.8 mph9.3 kmh 30.51 in1033.2 mb 0.00 in0.0 mm 0.00 in0.0 mm 0.00 in0.0 mm
12:04 AM 19.6°F-6.9°C -1.4°F-18.6°C 39% 1.3 mph NW2.1 kmh NW 5.8 mph9.3 kmh 30.51 in1033.2 mb 0.00 in0.0 mm 0.00 in0.0 mm 0.00 in0.0 mm
12:03 AM 19.6°F-6.9°C -1.4°F-18.6°C 39% 1.1 mph NW1.8 kmh NW 5.8 mph9.3 kmh 30.51 in1033.2 mb 0.00 in0.0 mm 0.00 in0.0 mm 0.00 in0.0 mm
12:02 AM 19.6°F-6.9°C -1.4°F-18.6°C 39% 0.7 mph WNW1.1 kmh WNW 2.7 mph4.3 kmh 30.51 in1033.2 mb 0.00 in0.0 mm 0.00 in0.0 mm 0.00 in0.0 mm
12:01 AM 19.6°F-6.9°C -1.4°F-18.6°C 39% 0.5 mph WNW0.8 kmh WNW 2.7 mph4.3 kmh 30.51 in1033.2 mb 0.00 in0.0 mm 0.00 in0.0 mm 0.00 in0.0 mm
12:00 AM 19.6°F-6.9°C -1.4°F-18.6°C 39% 0.7 mph WNW1.1 kmh WNW 2.7 mph4.3 kmh 30.51 in1033.2 mb 0.00 in0.0 mm 0.00 in0.0 mm 0.00 in0.0 mm